Aviation Digital Data Service (ADDS)

Output produced by METARs form (0258 UTC 18 August 2017)
found at http://www.aviationweather.gov/adds/metars/
 
ELLX 180250Z 20008KT 9999 BKN012 18/17 Q1016 NOSIG
TAF ELLX 172300Z 1800/1906 25006KT 9999 SCT030 
     TEMPO 1808/1814 23010G20KT RA SHRA BKN015 SCT012TCU 
     TEMPO 1817/1823 5000 SHRA SCT012TCU